sensor_id;sensor_type;location;lat;lon;timestamp;P1;durP1;ratioP1;P2;durP2;ratioP2
47113;SDS011;32867;51.556;6.832;2024-03-07T00:04:44;42.33;;;25.73;;
47113;SDS011;32867;51.556;6.832;2024-03-07T00:09:44;39.45;;;23.83;;
47113;SDS011;32867;51.556;6.832;2024-03-07T00:14:46;41.10;;;24.92;;
47113;SDS011;32867;51.556;6.832;2024-03-07T00:19:47;39.72;;;24.00;;
47113;SDS011;32867;51.556;6.832;2024-03-07T00:24:48;44.33;;;26.65;;
47113;SDS011;32867;51.556;6.832;2024-03-07T00:29:48;42.65;;;25.58;;
47113;SDS011;32867;51.556;6.832;2024-03-07T00:34:57;38.95;;;23.58;;
47113;SDS011;32867;51.556;6.832;2024-03-07T00:39:57;36.15;;;22.70;;
47113;SDS011;32867;51.556;6.832;2024-03-07T00:44:58;36.50;;;22.52;;
47113;SDS011;32867;51.556;6.832;2024-03-07T00:49:59;37.20;;;24.00;;
47113;SDS011;32867;51.556;6.832;2024-03-07T00:55:00;40.58;;;24.10;;
47113;SDS011;32867;51.556;6.832;2024-03-07T01:00:02;37.35;;;22.67;;
47113;SDS011;32867;51.556;6.832;2024-03-07T01:05:03;36.45;;;22.98;;
47113;SDS011;32867;51.556;6.832;2024-03-07T01:10:09;36.63;;;21.50;;
47113;SDS011;32867;51.556;6.832;2024-03-07T01:15:10;35.72;;;22.55;;
47113;SDS011;32867;51.556;6.832;2024-03-07T01:20:11;36.67;;;22.65;;
47113;SDS011;32867;51.556;6.832;2024-03-07T01:25:12;34.13;;;22.10;;
47113;SDS011;32867;51.556;6.832;2024-03-07T01:30:12;40.63;;;22.85;;
47113;SDS011;32867;51.556;6.832;2024-03-07T01:35:13;38.85;;;22.38;;
47113;SDS011;32867;51.556;6.832;2024-03-07T01:40:14;36.08;;;21.48;;
47113;SDS011;32867;51.556;6.832;2024-03-07T01:45:15;32.55;;;20.52;;
47113;SDS011;32867;51.556;6.832;2024-03-07T01:50:16;35.45;;;22.65;;
47113;SDS011;32867;51.556;6.832;2024-03-07T01:55:18;34.00;;;20.88;;
47113;SDS011;32867;51.556;6.832;2024-03-07T02:00:19;33.22;;;20.23;;
47113;SDS011;32867;51.556;6.832;2024-03-07T02:05:20;30.50;;;19.10;;
47113;SDS011;32867;51.556;6.832;2024-03-07T02:10:21;31.13;;;19.35;;
47113;SDS011;32867;51.556;6.832;2024-03-07T02:15:22;30.92;;;18.92;;
47113;SDS011;32867;51.556;6.832;2024-03-07T02:20:22;30.95;;;19.52;;
47113;SDS011;32867;51.556;6.832;2024-03-07T02:25:23;34.03;;;19.70;;
47113;SDS011;32867;51.556;6.832;2024-03-07T02:30:24;32.67;;;19.33;;
47113;SDS011;32867;51.556;6.832;2024-03-07T02:35:24;34.63;;;20.85;;
47113;SDS011;32867;51.556;6.832;2024-03-07T02:40:25;32.88;;;19.65;;
47113;SDS011;32867;51.556;6.832;2024-03-07T02:45:26;34.42;;;20.50;;
47113;SDS011;32867;51.556;6.832;2024-03-07T02:50:26;32.38;;;19.50;;
47113;SDS011;32867;51.556;6.832;2024-03-07T02:55:27;32.83;;;20.17;;
47113;SDS011;32867;51.556;6.832;2024-03-07T03:00:29;28.92;;;17.77;;
47113;SDS011;32867;51.556;6.832;2024-03-07T03:05:29;30.50;;;19.77;;
47113;SDS011;32867;51.556;6.832;2024-03-07T03:10:30;31.63;;;19.77;;
47113;SDS011;32867;51.556;6.832;2024-03-07T03:15:31;35.88;;;21.98;;
47113;SDS011;32867;51.556;6.832;2024-03-07T03:20:31;37.78;;;22.60;;
47113;SDS011;32867;51.556;6.832;2024-03-07T03:30:40;32.42;;;20.10;;
47113;SDS011;32867;51.556;6.832;2024-03-07T03:35:41;33.47;;;19.52;;
47113;SDS011;32867;51.556;6.832;2024-03-07T03:40:42;34.72;;;20.92;;
47113;SDS011;32867;51.556;6.832;2024-03-07T03:45:43;32.30;;;20.65;;
47113;SDS011;32867;51.556;6.832;2024-03-07T03:50:43;31.25;;;19.85;;
47113;SDS011;32867;51.556;6.832;2024-03-07T03:55:46;34.35;;;21.92;;
47113;SDS011;32867;51.556;6.832;2024-03-07T04:00:47;34.67;;;20.17;;
47113;SDS011;32867;51.556;6.832;2024-03-07T04:05:48;31.38;;;19.20;;
47113;SDS011;32867;51.556;6.832;2024-03-07T04:10:49;31.27;;;20.85;;
47113;SDS011;32867;51.556;6.832;2024-03-07T04:15:49;33.50;;;20.75;;
47113;SDS011;32867;51.556;6.832;2024-03-07T04:20:51;32.55;;;20.65;;
47113;SDS011;32867;51.556;6.832;2024-03-07T04:25:52;31.27;;;20.30;;
47113;SDS011;32867;51.556;6.832;2024-03-07T04:30:52;32.25;;;20.90;;
47113;SDS011;32867;51.556;6.832;2024-03-07T04:35:53;36.22;;;23.63;;
47113;SDS011;32867;51.556;6.832;2024-03-07T04:40:54;37.60;;;23.85;;
47113;SDS011;32867;51.556;6.832;2024-03-07T04:45:54;38.00;;;23.63;;
47113;SDS011;32867;51.556;6.832;2024-03-07T04:50:55;39.40;;;24.35;;
47113;SDS011;32867;51.556;6.832;2024-03-07T04:55:57;39.08;;;24.50;;
47113;SDS011;32867;51.556;6.832;2024-03-07T05:00:58;42.75;;;26.20;;
47113;SDS011;32867;51.556;6.832;2024-03-07T05:05:58;40.63;;;24.08;;
47113;SDS011;32867;51.556;6.832;2024-03-07T05:11:00;39.70;;;24.02;;
47113;SDS011;32867;51.556;6.832;2024-03-07T05:16:00;36.78;;;22.58;;
47113;SDS011;32867;51.556;6.832;2024-03-07T05:21:01;35.20;;;22.25;;
47113;SDS011;32867;51.556;6.832;2024-03-07T05:26:22;35.15;;;22.27;;
47113;SDS011;32867;51.556;6.832;2024-03-07T05:31:22;39.70;;;24.50;;
47113;SDS011;32867;51.556;6.832;2024-03-07T05:36:23;34.28;;;21.38;;
47113;SDS011;32867;51.556;6.832;2024-03-07T05:41:24;36.08;;;23.52;;
47113;SDS011;32867;51.556;6.832;2024-03-07T05:46:24;36.40;;;23.25;;
47113;SDS011;32867;51.556;6.832;2024-03-07T05:51:25;38.63;;;24.30;;
47113;SDS011;32867;51.556;6.832;2024-03-07T05:56:26;39.47;;;22.65;;
47113;SDS011;32867;51.556;6.832;2024-03-07T06:01:27;33.08;;;22.02;;
47113;SDS011;32867;51.556;6.832;2024-03-07T06:06:28;35.75;;;22.88;;
47113;SDS011;32867;51.556;6.832;2024-03-07T06:11:31;33.20;;;21.60;;
47113;SDS011;32867;51.556;6.832;2024-03-07T06:16:33;30.98;;;20.02;;
47113;SDS011;32867;51.556;6.832;2024-03-07T06:21:36;33.42;;;21.67;;
47113;SDS011;32867;51.556;6.832;2024-03-07T06:26:39;34.38;;;21.52;;
47113;SDS011;32867;51.556;6.832;2024-03-07T06:31:58;32.35;;;20.70;;
47113;SDS011;32867;51.556;6.832;2024-03-07T06:37:00;30.95;;;20.42;;
47113;SDS011;32867;51.556;6.832;2024-03-07T06:42:03;27.27;;;18.25;;
47113;SDS011;32867;51.556;6.832;2024-03-07T06:47:03;32.72;;;20.58;;
47113;SDS011;32867;51.556;6.832;2024-03-07T06:52:05;29.77;;;19.85;;
47113;SDS011;32867;51.556;6.832;2024-03-07T06:57:06;32.20;;;21.33;;
47113;SDS011;32867;51.556;6.832;2024-03-07T07:02:08;27.48;;;18.85;;
47113;SDS011;32867;51.556;6.832;2024-03-07T07:07:08;28.77;;;19.40;;
47113;SDS011;32867;51.556;6.832;2024-03-07T07:12:12;33.85;;;22.38;;
47113;SDS011;32867;51.556;6.832;2024-03-07T07:17:14;28.73;;;19.90;;
47113;SDS011;32867;51.556;6.832;2024-03-07T07:22:15;33.67;;;21.92;;
47113;SDS011;32867;51.556;6.832;2024-03-07T07:27:17;34.92;;;22.13;;
47113;SDS011;32867;51.556;6.832;2024-03-07T07:32:18;32.40;;;20.48;;
47113;SDS011;32867;51.556;6.832;2024-03-07T07:37:19;32.72;;;21.20;;
47113;SDS011;32867;51.556;6.832;2024-03-07T07:42:19;32.65;;;21.85;;
47113;SDS011;32867;51.556;6.832;2024-03-07T07:47:20;31.60;;;20.52;;
47113;SDS011;32867;51.556;6.832;2024-03-07T07:52:21;30.30;;;21.80;;
47113;SDS011;32867;51.556;6.832;2024-03-07T07:57:21;29.63;;;20.92;;
47113;SDS011;32867;51.556;6.832;2024-03-07T08:02:22;32.25;;;22.38;;
47113;SDS011;32867;51.556;6.832;2024-03-07T08:07:22;33.08;;;21.35;;
47113;SDS011;32867;51.556;6.832;2024-03-07T08:12:23;31.98;;;20.88;;
47113;SDS011;32867;51.556;6.832;2024-03-07T08:17:24;31.35;;;20.73;;
47113;SDS011;32867;51.556;6.832;2024-03-07T08:22:25;30.08;;;19.70;;
47113;SDS011;32867;51.556;6.832;2024-03-07T08:27:26;31.95;;;20.85;;
47113;SDS011;32867;51.556;6.832;2024-03-07T08:32:26;30.55;;;19.25;;
47113;SDS011;32867;51.556;6.832;2024-03-07T08:37:27;31.88;;;20.15;;
47113;SDS011;32867;51.556;6.832;2024-03-07T08:42:27;28.35;;;19.60;;
47113;SDS011;32867;51.556;6.832;2024-03-07T08:47:28;30.73;;;19.23;;
47113;SDS011;32867;51.556;6.832;2024-03-07T08:52:30;29.88;;;19.27;;
47113;SDS011;32867;51.556;6.832;2024-03-07T08:57:32;27.67;;;18.15;;
47113;SDS011;32867;51.556;6.832;2024-03-07T09:02:32;30.38;;;19.95;;
47113;SDS011;32867;51.556;6.832;2024-03-07T09:07:34;27.75;;;17.58;;
47113;SDS011;32867;51.556;6.832;2024-03-07T09:12:35;27.15;;;17.33;;
47113;SDS011;32867;51.556;6.832;2024-03-07T09:17:37;26.55;;;16.88;;
47113;SDS011;32867;51.556;6.832;2024-03-07T09:22:38;27.35;;;17.55;;
47113;SDS011;32867;51.556;6.832;2024-03-07T09:27:39;26.88;;;16.23;;
47113;SDS011;32867;51.556;6.832;2024-03-07T09:32:43;26.02;;;17.30;;
47113;SDS011;32867;51.556;6.832;2024-03-07T09:37:43;26.98;;;18.15;;
47113;SDS011;32867;51.556;6.832;2024-03-07T09:42:45;26.50;;;18.02;;
47113;SDS011;32867;51.556;6.832;2024-03-07T09:47:52;24.38;;;17.05;;
47113;SDS011;32867;51.556;6.832;2024-03-07T09:52:53;28.15;;;18.33;;
47113;SDS011;32867;51.556;6.832;2024-03-07T09:57:55;28.27;;;17.58;;
47113;SDS011;32867;51.556;6.832;2024-03-07T10:02:58;26.90;;;17.60;;
47113;SDS011;32867;51.556;6.832;2024-03-07T10:08:05;28.27;;;17.55;;
47113;SDS011;32867;51.556;6.832;2024-03-07T10:13:07;24.98;;;16.02;;
47113;SDS011;32867;51.556;6.832;2024-03-07T10:18:09;22.48;;;16.08;;
47113;SDS011;32867;51.556;6.832;2024-03-07T10:23:10;24.20;;;15.48;;
47113;SDS011;32867;51.556;6.832;2024-03-07T10:28:10;28.38;;;18.02;;
47113;SDS011;32867;51.556;6.832;2024-03-07T10:33:11;21.10;;;14.70;;
47113;SDS011;32867;51.556;6.832;2024-03-07T10:38:12;26.90;;;17.13;;
47113;SDS011;32867;51.556;6.832;2024-03-07T10:43:13;22.63;;;14.73;;
47113;SDS011;32867;51.556;6.832;2024-03-07T10:48:18;22.95;;;15.30;;
47113;SDS011;32867;51.556;6.832;2024-03-07T10:53:35;23.92;;;15.35;;
47113;SDS011;32867;51.556;6.832;2024-03-07T10:59:06;23.75;;;14.65;;
47113;SDS011;32867;51.556;6.832;2024-03-07T11:04:18;22.35;;;14.15;;
47113;SDS011;32867;51.556;6.832;2024-03-07T11:09:22;19.92;;;14.30;;
47113;SDS011;32867;51.556;6.832;2024-03-07T11:14:23;19.98;;;15.25;;
47113;SDS011;32867;51.556;6.832;2024-03-07T11:24:31;23.70;;;17.23;;
47113;SDS011;32867;51.556;6.832;2024-03-07T11:29:49;24.10;;;16.55;;
47113;SDS011;32867;51.556;6.832;2024-03-07T11:34:53;25.93;;;18.27;;
47113;SDS011;32867;51.556;6.832;2024-03-07T11:39:54;23.40;;;16.67;;
47113;SDS011;32867;51.556;6.832;2024-03-07T11:44:58;23.15;;;16.38;;
47113;SDS011;32867;51.556;6.832;2024-03-07T11:50:04;22.65;;;16.65;;
47113;SDS011;32867;51.556;6.832;2024-03-07T11:55:11;19.67;;;15.30;;
47113;SDS011;32867;51.556;6.832;2024-03-07T12:00:12;24.38;;;16.90;;
47113;SDS011;32867;51.556;6.832;2024-03-07T12:05:15;18.77;;;14.07;;
47113;SDS011;32867;51.556;6.832;2024-03-07T12:10:16;19.90;;;15.50;;
47113;SDS011;32867;51.556;6.832;2024-03-07T12:15:24;20.85;;;15.27;;
47113;SDS011;32867;51.556;6.832;2024-03-07T12:20:25;17.73;;;13.88;;
47113;SDS011;32867;51.556;6.832;2024-03-07T12:25:30;19.77;;;14.50;;
47113;SDS011;32867;51.556;6.832;2024-03-07T12:30:33;22.27;;;15.77;;
47113;SDS011;32867;51.556;6.832;2024-03-07T12:35:35;18.52;;;14.00;;
47113;SDS011;32867;51.556;6.832;2024-03-07T12:40:36;19.52;;;15.48;;
47113;SDS011;32867;51.556;6.832;2024-03-07T12:45:37;19.60;;;14.02;;
47113;SDS011;32867;51.556;6.832;2024-03-07T12:50:38;20.05;;;15.57;;
47113;SDS011;32867;51.556;6.832;2024-03-07T12:55:40;19.83;;;14.95;;
47113;SDS011;32867;51.556;6.832;2024-03-07T13:00:41;18.17;;;14.15;;
47113;SDS011;32867;51.556;6.832;2024-03-07T13:05:43;18.58;;;13.80;;
47113;SDS011;32867;51.556;6.832;2024-03-07T13:10:44;16.20;;;12.75;;
47113;SDS011;32867;51.556;6.832;2024-03-07T13:15:45;18.92;;;14.52;;
47113;SDS011;32867;51.556;6.832;2024-03-07T13:20:47;17.48;;;13.32;;
47113;SDS011;32867;51.556;6.832;2024-03-07T13:25:48;17.70;;;13.82;;
47113;SDS011;32867;51.556;6.832;2024-03-07T13:30:48;14.80;;;10.95;;
47113;SDS011;32867;51.556;6.832;2024-03-07T13:35:49;15.90;;;11.57;;
47113;SDS011;32867;51.556;6.832;2024-03-07T13:40:52;14.38;;;11.13;;
47113;SDS011;32867;51.556;6.832;2024-03-07T13:45:53;14.32;;;10.73;;
47113;SDS011;32867;51.556;6.832;2024-03-07T13:50:53;14.82;;;11.15;;
47113;SDS011;32867;51.556;6.832;2024-03-07T14:06:31;14.38;;;10.38;;
47113;SDS011;32867;51.556;6.832;2024-03-07T14:28:12;14.25;;;10.13;;
47113;SDS011;32867;51.556;6.832;2024-03-07T14:33:14;14.88;;;10.93;;
47113;SDS011;32867;51.556;6.832;2024-03-07T14:38:23;14.20;;;10.52;;
47113;SDS011;32867;51.556;6.832;2024-03-07T14:43:27;14.95;;;9.93;;
47113;SDS011;32867;51.556;6.832;2024-03-07T14:48:29;14.02;;;9.48;;
47113;SDS011;32867;51.556;6.832;2024-03-07T14:53:31;13.02;;;9.65;;
47113;SDS011;32867;51.556;6.832;2024-03-07T14:58:31;11.85;;;8.40;;
47113;SDS011;32867;51.556;6.832;2024-03-07T15:03:32;11.82;;;7.70;;
47113;SDS011;32867;51.556;6.832;2024-03-07T15:08:33;11.70;;;7.72;;
47113;SDS011;32867;51.556;6.832;2024-03-07T15:13:34;12.00;;;8.10;;
47113;SDS011;32867;51.556;6.832;2024-03-07T15:18:35;14.88;;;8.90;;
47113;SDS011;32867;51.556;6.832;2024-03-07T15:23:36;12.40;;;8.20;;
47113;SDS011;32867;51.556;6.832;2024-03-07T15:28:36;11.50;;;7.72;;
47113;SDS011;32867;51.556;6.832;2024-03-07T15:33:37;11.40;;;7.70;;
47113;SDS011;32867;51.556;6.832;2024-03-07T15:38:38;12.13;;;7.85;;
47113;SDS011;32867;51.556;6.832;2024-03-07T15:43:39;12.18;;;7.97;;
47113;SDS011;32867;51.556;6.832;2024-03-07T15:48:43;12.95;;;9.13;;
47113;SDS011;32867;51.556;6.832;2024-03-07T15:53:45;14.90;;;10.10;;
47113;SDS011;32867;51.556;6.832;2024-03-07T15:58:46;14.52;;;9.48;;
47113;SDS011;32867;51.556;6.832;2024-03-07T16:03:47;15.90;;;10.35;;
47113;SDS011;32867;51.556;6.832;2024-03-07T16:08:47;15.68;;;9.95;;
47113;SDS011;32867;51.556;6.832;2024-03-07T16:13:48;16.58;;;11.10;;
47113;SDS011;32867;51.556;6.832;2024-03-07T16:18:49;16.42;;;10.82;;
47113;SDS011;32867;51.556;6.832;2024-03-07T16:23:50;20.08;;;12.65;;
47113;SDS011;32867;51.556;6.832;2024-03-07T16:28:52;17.90;;;11.07;;
47113;SDS011;32867;51.556;6.832;2024-03-07T16:33:53;17.17;;;12.15;;
47113;SDS011;32867;51.556;6.832;2024-03-07T16:38:53;21.02;;;13.77;;
47113;SDS011;32867;51.556;6.832;2024-03-07T16:43:55;20.35;;;13.55;;
47113;SDS011;32867;51.556;6.832;2024-03-07T16:48:56;21.35;;;13.40;;
47113;SDS011;32867;51.556;6.832;2024-03-07T16:53:58;23.90;;;14.57;;
47113;SDS011;32867;51.556;6.832;2024-03-07T16:58:59;26.13;;;14.85;;
47113;SDS011;32867;51.556;6.832;2024-03-07T17:04:00;24.08;;;14.65;;
47113;SDS011;32867;51.556;6.832;2024-03-07T17:09:01;23.88;;;14.23;;
47113;SDS011;32867;51.556;6.832;2024-03-07T17:14:02;21.30;;;13.90;;
47113;SDS011;32867;51.556;6.832;2024-03-07T17:19:05;27.05;;;15.35;;
47113;SDS011;32867;51.556;6.832;2024-03-07T17:24:10;24.15;;;14.52;;
47113;SDS011;32867;51.556;6.832;2024-03-07T17:29:10;23.30;;;13.50;;
47113;SDS011;32867;51.556;6.832;2024-03-07T17:34:11;30.15;;;16.52;;
47113;SDS011;32867;51.556;6.832;2024-03-07T17:39:11;24.38;;;14.55;;
47113;SDS011;32867;51.556;6.832;2024-03-07T17:44:15;24.98;;;15.88;;
47113;SDS011;32867;51.556;6.832;2024-03-07T17:49:17;26.55;;;15.80;;
47113;SDS011;32867;51.556;6.832;2024-03-07T17:54:18;25.10;;;14.25;;
47113;SDS011;32867;51.556;6.832;2024-03-07T17:59:19;30.00;;;17.30;;
47113;SDS011;32867;51.556;6.832;2024-03-07T18:04:21;31.95;;;17.50;;
47113;SDS011;32867;51.556;6.832;2024-03-07T18:09:24;34.65;;;18.75;;
47113;SDS011;32867;51.556;6.832;2024-03-07T18:14:27;38.13;;;18.77;;
47113;SDS011;32867;51.556;6.832;2024-03-07T18:19:32;34.55;;;18.33;;
47113;SDS011;32867;51.556;6.832;2024-03-07T18:24:34;29.92;;;17.40;;
47113;SDS011;32867;51.556;6.832;2024-03-07T18:29:41;34.30;;;18.08;;
47113;SDS011;32867;51.556;6.832;2024-03-07T18:34:42;30.20;;;17.75;;
47113;SDS011;32867;51.556;6.832;2024-03-07T18:39:42;32.03;;;18.55;;
47113;SDS011;32867;51.556;6.832;2024-03-07T18:44:43;36.08;;;18.48;;
47113;SDS011;32867;51.556;6.832;2024-03-07T18:49:43;30.88;;;17.45;;
47113;SDS011;32867;51.556;6.832;2024-03-07T18:54:48;33.45;;;19.05;;
47113;SDS011;32867;51.556;6.832;2024-03-07T18:59:49;33.22;;;18.33;;
47113;SDS011;32867;51.556;6.832;2024-03-07T19:04:49;38.22;;;19.15;;
47113;SDS011;32867;51.556;6.832;2024-03-07T19:09:50;33.17;;;17.95;;
47113;SDS011;32867;51.556;6.832;2024-03-07T19:14:53;34.55;;;19.10;;
47113;SDS011;32867;51.556;6.832;2024-03-07T19:19:54;40.30;;;20.65;;
47113;SDS011;32867;51.556;6.832;2024-03-07T19:24:54;39.13;;;19.25;;
47113;SDS011;32867;51.556;6.832;2024-03-07T19:29:55;41.05;;;20.02;;
47113;SDS011;32867;51.556;6.832;2024-03-07T19:34:55;38.30;;;19.50;;
47113;SDS011;32867;51.556;6.832;2024-03-07T19:39:58;35.50;;;19.55;;
47113;SDS011;32867;51.556;6.832;2024-03-07T19:44:58;34.30;;;19.23;;
47113;SDS011;32867;51.556;6.832;2024-03-07T19:50:01;34.42;;;18.48;;
47113;SDS011;32867;51.556;6.832;2024-03-07T19:55:04;32.67;;;18.33;;
47113;SDS011;32867;51.556;6.832;2024-03-07T20:00:05;39.00;;;19.83;;
47113;SDS011;32867;51.556;6.832;2024-03-07T20:05:12;29.80;;;18.02;;
47113;SDS011;32867;51.556;6.832;2024-03-07T20:10:19;33.65;;;17.42;;
47113;SDS011;32867;51.556;6.832;2024-03-07T20:15:20;30.58;;;17.80;;
47113;SDS011;32867;51.556;6.832;2024-03-07T20:20:21;34.83;;;19.63;;
47113;SDS011;32867;51.556;6.832;2024-03-07T20:25:25;29.35;;;16.60;;
47113;SDS011;32867;51.556;6.832;2024-03-07T20:30:27;28.67;;;17.13;;
47113;SDS011;32867;51.556;6.832;2024-03-07T20:35:33;27.95;;;17.23;;
47113;SDS011;32867;51.556;6.832;2024-03-07T20:40:34;30.38;;;17.40;;
47113;SDS011;32867;51.556;6.832;2024-03-07T20:45:35;28.85;;;16.73;;
47113;SDS011;32867;51.556;6.832;2024-03-07T20:50:35;28.88;;;15.25;;
47113;SDS011;32867;51.556;6.832;2024-03-07T20:55:39;26.02;;;15.25;;
47113;SDS011;32867;51.556;6.832;2024-03-07T21:00:40;27.42;;;16.52;;
47113;SDS011;32867;51.556;6.832;2024-03-07T21:05:47;25.30;;;15.23;;
47113;SDS011;32867;51.556;6.832;2024-03-07T21:10:49;25.02;;;14.85;;
47113;SDS011;32867;51.556;6.832;2024-03-07T21:15:49;24.48;;;15.20;;
47113;SDS011;32867;51.556;6.832;2024-03-07T21:20:50;22.02;;;13.55;;
47113;SDS011;32867;51.556;6.832;2024-03-07T21:25:52;23.20;;;14.82;;
47113;SDS011;32867;51.556;6.832;2024-03-07T21:30:52;22.73;;;14.98;;
47113;SDS011;32867;51.556;6.832;2024-03-07T21:35:55;23.73;;;14.35;;
47113;SDS011;32867;51.556;6.832;2024-03-07T21:40:55;28.77;;;13.35;;
47113;SDS011;32867;51.556;6.832;2024-03-07T21:45:56;22.85;;;13.77;;
47113;SDS011;32867;51.556;6.832;2024-03-07T21:50:57;23.63;;;13.68;;
47113;SDS011;32867;51.556;6.832;2024-03-07T21:55:58;22.60;;;13.70;;
47113;SDS011;32867;51.556;6.832;2024-03-07T22:01:01;23.13;;;14.45;;
47113;SDS011;32867;51.556;6.832;2024-03-07T22:06:05;22.05;;;14.23;;
47113;SDS011;32867;51.556;6.832;2024-03-07T22:11:13;24.80;;;14.30;;
47113;SDS011;32867;51.556;6.832;2024-03-07T22:16:14;22.48;;;14.15;;
47113;SDS011;32867;51.556;6.832;2024-03-07T22:21:15;21.23;;;12.90;;
47113;SDS011;32867;51.556;6.832;2024-03-07T22:26:16;22.55;;;14.43;;
47113;SDS011;32867;51.556;6.832;2024-03-07T22:31:16;20.52;;;13.52;;
47113;SDS011;32867;51.556;6.832;2024-03-07T22:36:18;21.02;;;13.55;;
47113;SDS011;32867;51.556;6.832;2024-03-07T22:41:19;19.52;;;13.40;;
47113;SDS011;32867;51.556;6.832;2024-03-07T22:46:20;19.83;;;13.45;;
47113;SDS011;32867;51.556;6.832;2024-03-07T22:51:20;20.45;;;13.20;;
47113;SDS011;32867;51.556;6.832;2024-03-07T22:56:23;20.17;;;13.05;;
47113;SDS011;32867;51.556;6.832;2024-03-07T23:01:30;20.67;;;13.35;;
47113;SDS011;32867;51.556;6.832;2024-03-07T23:06:31;20.90;;;13.07;;
47113;SDS011;32867;51.556;6.832;2024-03-07T23:11:32;19.67;;;13.02;;
47113;SDS011;32867;51.556;6.832;2024-03-07T23:16:34;18.77;;;12.85;;
47113;SDS011;32867;51.556;6.832;2024-03-07T23:21:35;18.23;;;13.57;;
47113;SDS011;32867;51.556;6.832;2024-03-07T23:26:35;21.13;;;14.18;;
47113;SDS011;32867;51.556;6.832;2024-03-07T23:31:36;19.67;;;13.75;;
47113;SDS011;32867;51.556;6.832;2024-03-07T23:36:37;20.00;;;13.73;;
47113;SDS011;32867;51.556;6.832;2024-03-07T23:41:37;21.50;;;13.52;;
47113;SDS011;32867;51.556;6.832;2024-03-07T23:46:39;18.33;;;12.35;;
47113;SDS011;32867;51.556;6.832;2024-03-07T23:51:46;19.58;;;13.23;;
47113;SDS011;32867;51.556;6.832;2024-03-07T23:56:47;22.58;;;13.70;;
